sensor_id;sensor_type;location;lat;lon;timestamp;temperature;humidity
25436;DHT22;13363;52.772;-3.890;2022-10-14T00:00:37;14.70;99.90
25436;DHT22;13363;52.772;-3.890;2022-10-14T00:03:03;14.70;99.90
25436;DHT22;13363;52.772;-3.890;2022-10-14T00:05:29;14.60;99.90
25436;DHT22;13363;52.772;-3.890;2022-10-14T00:07:55;14.70;99.90
25436;DHT22;13363;52.772;-3.890;2022-10-14T00:10:21;14.60;99.90
25436;DHT22;13363;52.772;-3.890;2022-10-14T00:12:47;14.60;99.90
25436;DHT22;13363;52.772;-3.890;2022-10-14T00:15:13;14.60;99.90
25436;DHT22;13363;52.772;-3.890;2022-10-14T00:17:39;14.60;99.90
25436;DHT22;13363;52.772;-3.890;2022-10-14T00:20:05;14.60;99.90
25436;DHT22;13363;52.772;-3.890;2022-10-14T00:22:31;14.60;99.90
25436;DHT22;13363;52.772;-3.890;2022-10-14T00:24:57;14.60;99.90
25436;DHT22;13363;52.772;-3.890;2022-10-14T00:27:23;14.60;99.90
25436;DHT22;13363;52.772;-3.890;2022-10-14T00:29:49;14.60;99.90
25436;DHT22;13363;52.772;-3.890;2022-10-14T00:32:15;14.60;99.90
25436;DHT22;13363;52.772;-3.890;2022-10-14T00:34:40;14.60;99.90
25436;DHT22;13363;52.772;-3.890;2022-10-14T00:37:06;14.60;99.90
25436;DHT22;13363;52.772;-3.890;2022-10-14T00:39:32;14.60;99.90
25436;DHT22;13363;52.772;-3.890;2022-10-14T00:41:58;14.70;99.90
25436;DHT22;13363;52.772;-3.890;2022-10-14T00:46:51;14.70;99.90
25436;DHT22;13363;52.772;-3.890;2022-10-14T00:49:24;14.60;99.90
25436;DHT22;13363;52.772;-3.890;2022-10-14T00:52:19;14.60;99.90
25436;DHT22;13363;52.772;-3.890;2022-10-14T00:55:03;14.60;99.90
25436;DHT22;13363;52.772;-3.890;2022-10-14T00:57:29;14.60;99.90
25436;DHT22;13363;52.772;-3.890;2022-10-14T01:00:00;14.70;99.90
25436;DHT22;13363;52.772;-3.890;2022-10-14T01:02:28;14.70;99.90
25436;DHT22;13363;52.772;-3.890;2022-10-14T01:04:53;14.60;99.90
25436;DHT22;13363;52.772;-3.890;2022-10-14T01:07:37;14.70;99.90
25436;DHT22;13363;52.772;-3.890;2022-10-14T01:10:35;14.60;99.90
25436;DHT22;13363;52.772;-3.890;2022-10-14T01:13:18;14.60;99.90
25436;DHT22;13363;52.772;-3.890;2022-10-14T01:15:54;14.60;99.90
25436;DHT22;13363;52.772;-3.890;2022-10-14T01:18:47;14.70;99.90
25436;DHT22;13363;52.772;-3.890;2022-10-14T01:21:35;14.80;99.90
25436;DHT22;13363;52.772;-3.890;2022-10-14T01:37:33;14.70;99.90
25436;DHT22;13363;52.772;-3.890;2022-10-14T01:40:06;14.70;99.90
25436;DHT22;13363;52.772;-3.890;2022-10-14T01:42:34;14.70;99.90
25436;DHT22;13363;52.772;-3.890;2022-10-14T01:45:10;14.70;99.90
25436;DHT22;13363;52.772;-3.890;2022-10-14T01:47:38;14.70;99.90
25436;DHT22;13363;52.772;-3.890;2022-10-14T01:50:12;14.70;99.90
25436;DHT22;13363;52.772;-3.890;2022-10-14T01:52:48;14.60;99.90
25436;DHT22;13363;52.772;-3.890;2022-10-14T01:55:18;14.60;99.90
25436;DHT22;13363;52.772;-3.890;2022-10-14T01:57:46;14.80;99.90
25436;DHT22;13363;52.772;-3.890;2022-10-14T02:00:15;14.80;99.90
25436;DHT22;13363;52.772;-3.890;2022-10-14T02:02:41;14.90;99.90
25436;DHT22;13363;52.772;-3.890;2022-10-14T02:07:47;14.90;99.90
25436;DHT22;13363;52.772;-3.890;2022-10-14T02:13:19;14.90;99.90
25436;DHT22;13363;52.772;-3.890;2022-10-14T02:21:26;15.10;99.90
25436;DHT22;13363;52.772;-3.890;2022-10-14T02:24:05;15.00;99.90
25436;DHT22;13363;52.772;-3.890;2022-10-14T02:26:33;15.00;99.90
25436;DHT22;13363;52.772;-3.890;2022-10-14T02:29:00;14.90;99.90
25436;DHT22;13363;52.772;-3.890;2022-10-14T02:31:28;15.00;99.90
25436;DHT22;13363;52.772;-3.890;2022-10-14T02:33:59;15.00;99.90
25436;DHT22;13363;52.772;-3.890;2022-10-14T02:36:28;15.10;99.90
25436;DHT22;13363;52.772;-3.890;2022-10-14T02:38:56;15.10;99.90
25436;DHT22;13363;52.772;-3.890;2022-10-14T02:41:26;15.10;99.90
25436;DHT22;13363;52.772;-3.890;2022-10-14T02:43:53;15.10;99.90
25436;DHT22;13363;52.772;-3.890;2022-10-14T02:46:20;15.10;99.90
25436;DHT22;13363;52.772;-3.890;2022-10-14T02:48:47;15.10;99.90
25436;DHT22;13363;52.772;-3.890;2022-10-14T02:51:13;15.00;99.90
25436;DHT22;13363;52.772;-3.890;2022-10-14T02:53:39;14.90;99.90
25436;DHT22;13363;52.772;-3.890;2022-10-14T02:56:05;15.00;99.90
25436;DHT22;13363;52.772;-3.890;2022-10-14T02:58:31;15.00;99.90
25436;DHT22;13363;52.772;-3.890;2022-10-14T03:00:57;14.90;99.90
25436;DHT22;13363;52.772;-3.890;2022-10-14T03:03:22;14.70;99.90
25436;DHT22;13363;52.772;-3.890;2022-10-14T03:05:48;14.70;99.90
25436;DHT22;13363;52.772;-3.890;2022-10-14T03:08:15;14.70;99.90
25436;DHT22;13363;52.772;-3.890;2022-10-14T03:10:40;14.80;99.90
25436;DHT22;13363;52.772;-3.890;2022-10-14T03:13:10;14.70;99.90
25436;DHT22;13363;52.772;-3.890;2022-10-14T03:15:35;14.80;99.90
25436;DHT22;13363;52.772;-3.890;2022-10-14T03:18:01;14.80;99.90
25436;DHT22;13363;52.772;-3.890;2022-10-14T03:20:27;14.70;99.90
25436;DHT22;13363;52.772;-3.890;2022-10-14T03:22:53;14.70;99.90
25436;DHT22;13363;52.772;-3.890;2022-10-14T03:25:18;14.60;99.90
25436;DHT22;13363;52.772;-3.890;2022-10-14T03:27:44;14.50;99.90
25436;DHT22;13363;52.772;-3.890;2022-10-14T03:30:10;14.40;99.90
25436;DHT22;13363;52.772;-3.890;2022-10-14T03:32:36;14.30;99.90
25436;DHT22;13363;52.772;-3.890;2022-10-14T03:35:02;14.30;99.90
25436;DHT22;13363;52.772;-3.890;2022-10-14T03:37:28;14.30;99.90
25436;DHT22;13363;52.772;-3.890;2022-10-14T03:39:54;14.30;99.90
25436;DHT22;13363;52.772;-3.890;2022-10-14T03:42:19;14.30;99.90
25436;DHT22;13363;52.772;-3.890;2022-10-14T03:44:45;14.40;99.90
25436;DHT22;13363;52.772;-3.890;2022-10-14T03:47:11;14.30;99.90
25436;DHT22;13363;52.772;-3.890;2022-10-14T03:49:37;14.20;99.90
25436;DHT22;13363;52.772;-3.890;2022-10-14T03:52:03;14.20;99.90
25436;DHT22;13363;52.772;-3.890;2022-10-14T03:54:29;14.20;99.90
25436;DHT22;13363;52.772;-3.890;2022-10-14T03:56:55;14.20;99.90
25436;DHT22;13363;52.772;-3.890;2022-10-14T03:59:20;14.20;99.90
25436;DHT22;13363;52.772;-3.890;2022-10-14T04:01:46;14.30;99.90
25436;DHT22;13363;52.772;-3.890;2022-10-14T04:04:12;14.40;99.90
25436;DHT22;13363;52.772;-3.890;2022-10-14T04:06:38;14.40;99.90
25436;DHT22;13363;52.772;-3.890;2022-10-14T04:09:04;14.60;99.90
25436;DHT22;13363;52.772;-3.890;2022-10-14T04:11:30;14.50;99.90
25436;DHT22;13363;52.772;-3.890;2022-10-14T04:13:59;14.40;99.90
25436;DHT22;13363;52.772;-3.890;2022-10-14T04:16:25;14.50;99.90
25436;DHT22;13363;52.772;-3.890;2022-10-14T04:18:52;14.60;99.90
25436;DHT22;13363;52.772;-3.890;2022-10-14T04:21:18;14.70;99.90
25436;DHT22;13363;52.772;-3.890;2022-10-14T04:23:44;14.60;99.90
25436;DHT22;13363;52.772;-3.890;2022-10-14T04:26:10;14.50;99.90
25436;DHT22;13363;52.772;-3.890;2022-10-14T04:28:36;14.40;99.90
25436;DHT22;13363;52.772;-3.890;2022-10-14T04:31:03;14.50;99.90
25436;DHT22;13363;52.772;-3.890;2022-10-14T04:33:29;14.80;99.90
25436;DHT22;13363;52.772;-3.890;2022-10-14T04:35:59;14.80;99.90
25436;DHT22;13363;52.772;-3.890;2022-10-14T04:38:26;14.60;99.90
25436;DHT22;13363;52.772;-3.890;2022-10-14T04:40:54;14.50;99.90
25436;DHT22;13363;52.772;-3.890;2022-10-14T04:43:20;14.50;99.90
25436;DHT22;13363;52.772;-3.890;2022-10-14T04:45:46;14.50;99.90
25436;DHT22;13363;52.772;-3.890;2022-10-14T04:48:12;14.40;99.90
25436;DHT22;13363;52.772;-3.890;2022-10-14T04:50:38;14.30;99.90
25436;DHT22;13363;52.772;-3.890;2022-10-14T04:53:05;14.20;99.90
25436;DHT22;13363;52.772;-3.890;2022-10-14T04:55:31;14.10;99.90
25436;DHT22;13363;52.772;-3.890;2022-10-14T04:57:56;14.20;99.90
25436;DHT22;13363;52.772;-3.890;2022-10-14T05:00:22;14.10;99.90
25436;DHT22;13363;52.772;-3.890;2022-10-14T05:02:48;14.00;99.90
25436;DHT22;13363;52.772;-3.890;2022-10-14T05:05:14;13.90;99.90
25436;DHT22;13363;52.772;-3.890;2022-10-14T05:07:40;13.80;99.90
25436;DHT22;13363;52.772;-3.890;2022-10-14T05:10:07;13.70;99.90
25436;DHT22;13363;52.772;-3.890;2022-10-14T05:12:35;13.60;99.90
25436;DHT22;13363;52.772;-3.890;2022-10-14T05:15:01;13.50;99.90
25436;DHT22;13363;52.772;-3.890;2022-10-14T05:17:30;13.50;99.90
25436;DHT22;13363;52.772;-3.890;2022-10-14T05:19:56;13.50;99.90
25436;DHT22;13363;52.772;-3.890;2022-10-14T05:22:22;13.50;99.90
25436;DHT22;13363;52.772;-3.890;2022-10-14T05:24:48;13.60;99.90
25436;DHT22;13363;52.772;-3.890;2022-10-14T05:27:14;13.60;99.90
25436;DHT22;13363;52.772;-3.890;2022-10-14T05:29:40;13.60;99.90
25436;DHT22;13363;52.772;-3.890;2022-10-14T05:32:06;13.60;99.90
25436;DHT22;13363;52.772;-3.890;2022-10-14T05:34:32;13.60;99.90
25436;DHT22;13363;52.772;-3.890;2022-10-14T05:36:59;13.60;99.90
25436;DHT22;13363;52.772;-3.890;2022-10-14T05:39:25;13.60;99.90
25436;DHT22;13363;52.772;-3.890;2022-10-14T05:41:51;13.60;99.90
25436;DHT22;13363;52.772;-3.890;2022-10-14T05:44:16;13.60;99.90
25436;DHT22;13363;52.772;-3.890;2022-10-14T05:46:42;13.50;99.90
25436;DHT22;13363;52.772;-3.890;2022-10-14T05:49:10;13.50;99.90
25436;DHT22;13363;52.772;-3.890;2022-10-14T05:51:36;13.60;99.90
25436;DHT22;13363;52.772;-3.890;2022-10-14T05:54:02;13.50;99.90
25436;DHT22;13363;52.772;-3.890;2022-10-14T05:56:27;13.40;99.90
25436;DHT22;13363;52.772;-3.890;2022-10-14T05:58:53;13.30;99.90
25436;DHT22;13363;52.772;-3.890;2022-10-14T06:01:19;13.30;99.90
25436;DHT22;13363;52.772;-3.890;2022-10-14T06:03:49;13.30;99.90
25436;DHT22;13363;52.772;-3.890;2022-10-14T06:06:15;13.30;99.90
25436;DHT22;13363;52.772;-3.890;2022-10-14T06:08:41;13.30;99.90
25436;DHT22;13363;52.772;-3.890;2022-10-14T06:11:07;13.30;99.90
25436;DHT22;13363;52.772;-3.890;2022-10-14T06:13:34;13.20;99.90
25436;DHT22;13363;52.772;-3.890;2022-10-14T06:16:04;13.20;99.90
25436;DHT22;13363;52.772;-3.890;2022-10-14T06:18:31;13.20;99.90
25436;DHT22;13363;52.772;-3.890;2022-10-14T06:20:57;13.10;99.90
25436;DHT22;13363;52.772;-3.890;2022-10-14T06:23:23;13.10;99.90
25436;DHT22;13363;52.772;-3.890;2022-10-14T06:25:48;13.20;99.90
25436;DHT22;13363;52.772;-3.890;2022-10-14T06:28:14;13.10;99.90
25436;DHT22;13363;52.772;-3.890;2022-10-14T06:30:40;13.00;99.90
25436;DHT22;13363;52.772;-3.890;2022-10-14T06:33:06;13.00;99.90
25436;DHT22;13363;52.772;-3.890;2022-10-14T06:35:32;12.90;99.90
25436;DHT22;13363;52.772;-3.890;2022-10-14T06:37:58;12.80;99.90
25436;DHT22;13363;52.772;-3.890;2022-10-14T06:40:23;12.80;99.90
25436;DHT22;13363;52.772;-3.890;2022-10-14T06:42:49;12.80;99.90
25436;DHT22;13363;52.772;-3.890;2022-10-14T06:45:15;12.70;99.90
25436;DHT22;13363;52.772;-3.890;2022-10-14T06:47:41;12.70;99.90
25436;DHT22;13363;52.772;-3.890;2022-10-14T06:50:07;12.70;99.90
25436;DHT22;13363;52.772;-3.890;2022-10-14T06:52:33;12.70;99.90
25436;DHT22;13363;52.772;-3.890;2022-10-14T06:54:59;12.70;99.90
25436;DHT22;13363;52.772;-3.890;2022-10-14T06:57:25;12.70;99.90
25436;DHT22;13363;52.772;-3.890;2022-10-14T06:59:50;12.70;99.90
25436;DHT22;13363;52.772;-3.890;2022-10-14T07:02:17;12.90;99.90
25436;DHT22;13363;52.772;-3.890;2022-10-14T07:04:43;12.90;99.90
25436;DHT22;13363;52.772;-3.890;2022-10-14T07:07:09;12.90;99.90
25436;DHT22;13363;52.772;-3.890;2022-10-14T07:09:35;12.80;99.90
25436;DHT22;13363;52.772;-3.890;2022-10-14T07:12:01;12.80;99.90
25436;DHT22;13363;52.772;-3.890;2022-10-14T07:14:27;12.90;99.90
25436;DHT22;13363;52.772;-3.890;2022-10-14T07:16:52;12.80;99.90
25436;DHT22;13363;52.772;-3.890;2022-10-14T07:19:18;12.70;99.90
25436;DHT22;13363;52.772;-3.890;2022-10-14T07:21:44;12.70;99.90
25436;DHT22;13363;52.772;-3.890;2022-10-14T07:24:11;12.70;99.90
25436;DHT22;13363;52.772;-3.890;2022-10-14T07:26:37;12.70;99.90
25436;DHT22;13363;52.772;-3.890;2022-10-14T07:29:04;12.70;99.90
25436;DHT22;13363;52.772;-3.890;2022-10-14T07:31:30;12.80;99.90
25436;DHT22;13363;52.772;-3.890;2022-10-14T07:33:56;12.80;99.90
25436;DHT22;13363;52.772;-3.890;2022-10-14T07:36:22;12.80;99.90
25436;DHT22;13363;52.772;-3.890;2022-10-14T07:38:48;12.90;99.90
25436;DHT22;13363;52.772;-3.890;2022-10-14T07:41:22;12.90;99.90
25436;DHT22;13363;52.772;-3.890;2022-10-14T07:43:53;13.10;99.90
25436;DHT22;13363;52.772;-3.890;2022-10-14T07:46:22;13.20;99.90
25436;DHT22;13363;52.772;-3.890;2022-10-14T07:51:38;13.20;99.90
25436;DHT22;13363;52.772;-3.890;2022-10-14T07:54:06;13.30;99.90
25436;DHT22;13363;52.772;-3.890;2022-10-14T07:56:39;13.30;99.90
25436;DHT22;13363;52.772;-3.890;2022-10-14T07:59:05;13.40;99.90
25436;DHT22;13363;52.772;-3.890;2022-10-14T08:01:33;13.40;99.90
25436;DHT22;13363;52.772;-3.890;2022-10-14T08:03:59;13.50;99.90
25436;DHT22;13363;52.772;-3.890;2022-10-14T08:06:25;13.50;99.90
25436;DHT22;13363;52.772;-3.890;2022-10-14T08:08:51;13.50;99.90
25436;DHT22;13363;52.772;-3.890;2022-10-14T08:11:25;13.50;99.90
25436;DHT22;13363;52.772;-3.890;2022-10-14T08:13:52;13.60;99.90
25436;DHT22;13363;52.772;-3.890;2022-10-14T08:16:23;13.70;99.90
25436;DHT22;13363;52.772;-3.890;2022-10-14T08:18:50;13.70;99.90
25436;DHT22;13363;52.772;-3.890;2022-10-14T08:21:18;13.80;99.90
25436;DHT22;13363;52.772;-3.890;2022-10-14T08:23:44;13.90;99.90
25436;DHT22;13363;52.772;-3.890;2022-10-14T08:28:42;14.30;99.90
25436;DHT22;13363;52.772;-3.890;2022-10-14T08:31:08;14.90;99.90
25436;DHT22;13363;52.772;-3.890;2022-10-14T08:33:34;15.50;99.90
25436;DHT22;13363;52.772;-3.890;2022-10-14T08:35:59;15.70;99.90
25436;DHT22;13363;52.772;-3.890;2022-10-14T08:38:25;16.00;99.90
25436;DHT22;13363;52.772;-3.890;2022-10-14T08:44:17;16.60;99.90
25436;DHT22;13363;52.772;-3.890;2022-10-14T08:54:40;16.10;99.90
25436;DHT22;13363;52.772;-3.890;2022-10-14T08:57:20;16.00;99.90
25436;DHT22;13363;52.772;-3.890;2022-10-14T08:59:47;15.90;99.90
25436;DHT22;13363;52.772;-3.890;2022-10-14T09:04:49;15.90;99.90
25436;DHT22;13363;52.772;-3.890;2022-10-14T09:07:17;15.90;99.90
25436;DHT22;13363;52.772;-3.890;2022-10-14T09:09:47;15.90;99.90
25436;DHT22;13363;52.772;-3.890;2022-10-14T09:12:25;16.00;99.90
25436;DHT22;13363;52.772;-3.890;2022-10-14T09:18:03;15.90;99.90
25436;DHT22;13363;52.772;-3.890;2022-10-14T09:20:30;15.80;99.90
25436;DHT22;13363;52.772;-3.890;2022-10-14T09:25:24;15.70;99.90
25436;DHT22;13363;52.772;-3.890;2022-10-14T09:27:50;15.60;99.90
25436;DHT22;13363;52.772;-3.890;2022-10-14T09:30:16;15.40;99.90
25436;DHT22;13363;52.772;-3.890;2022-10-14T09:32:43;15.50;99.90
25436;DHT22;13363;52.772;-3.890;2022-10-14T09:35:13;15.40;99.90
25436;DHT22;13363;52.772;-3.890;2022-10-14T09:37:41;15.30;99.90
25436;DHT22;13363;52.772;-3.890;2022-10-14T09:40:17;15.30;99.90
25436;DHT22;13363;52.772;-3.890;2022-10-14T09:45:19;15.20;99.90
25436;DHT22;13363;52.772;-3.890;2022-10-14T09:47:57;15.40;99.90
25436;DHT22;13363;52.772;-3.890;2022-10-14T09:50:39;15.30;99.90
25436;DHT22;13363;52.772;-3.890;2022-10-14T09:53:14;15.30;99.90
25436;DHT22;13363;52.772;-3.890;2022-10-14T09:56:00;15.30;99.90
25436;DHT22;13363;52.772;-3.890;2022-10-14T09:58:34;15.30;99.90
25436;DHT22;13363;52.772;-3.890;2022-10-14T10:01:01;15.30;99.90
25436;DHT22;13363;52.772;-3.890;2022-10-14T10:03:34;15.30;99.90
25436;DHT22;13363;52.772;-3.890;2022-10-14T10:06:03;15.30;99.90
25436;DHT22;13363;52.772;-3.890;2022-10-14T10:08:30;15.40;99.90
25436;DHT22;13363;52.772;-3.890;2022-10-14T10:11:02;15.50;99.90
25436;DHT22;13363;52.772;-3.890;2022-10-14T10:16:02;15.40;99.90
25436;DHT22;13363;52.772;-3.890;2022-10-14T10:18:29;15.50;99.90
25436;DHT22;13363;52.772;-3.890;2022-10-14T10:21:02;15.50;99.90
25436;DHT22;13363;52.772;-3.890;2022-10-14T10:23:36;15.50;99.90
25436;DHT22;13363;52.772;-3.890;2022-10-14T10:26:30;15.60;99.90
25436;DHT22;13363;52.772;-3.890;2022-10-14T10:29:00;15.60;99.90
25436;DHT22;13363;52.772;-3.890;2022-10-14T10:31:49;15.60;99.90
25436;DHT22;13363;52.772;-3.890;2022-10-14T10:34:30;15.70;99.90
25436;DHT22;13363;52.772;-3.890;2022-10-14T10:43:00;16.30;99.90
25436;DHT22;13363;52.772;-3.890;2022-10-14T10:48:10;16.60;99.90
25436;DHT22;13363;52.772;-3.890;2022-10-14T10:53:53;16.20;99.90
25436;DHT22;13363;52.772;-3.890;2022-10-14T10:59:36;15.70;99.90
25436;DHT22;13363;52.772;-3.890;2022-10-14T11:13:56;15.50;99.90
25436;DHT22;13363;52.772;-3.890;2022-10-14T11:16:46;15.60;99.90
25436;DHT22;13363;52.772;-3.890;2022-10-14T11:22:15;15.50;99.90
25436;DHT22;13363;52.772;-3.890;2022-10-14T11:24:52;15.60;99.90
25436;DHT22;13363;52.772;-3.890;2022-10-14T11:30:10;15.80;99.90
25436;DHT22;13363;52.772;-3.890;2022-10-14T11:39:32;15.40;99.90
25436;DHT22;13363;52.772;-3.890;2022-10-14T11:44:36;15.40;99.90
25436;DHT22;13363;52.772;-3.890;2022-10-14T11:47:17;15.40;99.90
25436;DHT22;13363;52.772;-3.890;2022-10-14T11:50:00;15.40;99.90
25436;DHT22;13363;52.772;-3.890;2022-10-14T11:52:52;15.40;99.90
25436;DHT22;13363;52.772;-3.890;2022-10-14T11:55:22;15.30;99.90
25436;DHT22;13363;52.772;-3.890;2022-10-14T11:57:52;15.20;99.90
25436;DHT22;13363;52.772;-3.890;2022-10-14T12:00:20;15.30;99.90
25436;DHT22;13363;52.772;-3.890;2022-10-14T12:03:07;15.40;99.90
25436;DHT22;13363;52.772;-3.890;2022-10-14T12:05:49;15.60;99.90
25436;DHT22;13363;52.772;-3.890;2022-10-14T12:13:43;16.40;99.90
25436;DHT22;13363;52.772;-3.890;2022-10-14T12:16:14;16.30;99.90
25436;DHT22;13363;52.772;-3.890;2022-10-14T12:25:00;16.20;99.90
25436;DHT22;13363;52.772;-3.890;2022-10-14T12:27:29;16.60;99.90
25436;DHT22;13363;52.772;-3.890;2022-10-14T12:29:56;16.90;99.90
25436;DHT22;13363;52.772;-3.890;2022-10-14T12:32:27;16.70;99.90
25436;DHT22;13363;52.772;-3.890;2022-10-14T12:34:58;16.90;99.90
25436;DHT22;13363;52.772;-3.890;2022-10-14T12:45:19;16.50;99.90
25436;DHT22;13363;52.772;-3.890;2022-10-14T12:48:36;16.50;99.90
25436;DHT22;13363;52.772;-3.890;2022-10-14T12:50:36;16.60;99.90
25436;DHT22;13363;52.772;-3.890;2022-10-14T12:53:25;16.50;99.90
25436;DHT22;13363;52.772;-3.890;2022-10-14T12:55:56;16.20;99.90
25436;DHT22;13363;52.772;-3.890;2022-10-14T13:01:01;15.90;99.90
25436;DHT22;13363;52.772;-3.890;2022-10-14T13:03:32;15.90;99.90
25436;DHT22;13363;52.772;-3.890;2022-10-14T13:11:40;15.40;99.90
25436;DHT22;13363;52.772;-3.890;2022-10-14T13:14:25;15.40;99.90
25436;DHT22;13363;52.772;-3.890;2022-10-14T13:25:05;15.40;99.90
25436;DHT22;13363;52.772;-3.890;2022-10-14T13:39:19;15.90;99.90
25436;DHT22;13363;52.772;-3.890;2022-10-14T13:41:45;15.70;99.90
25436;DHT22;13363;52.772;-3.890;2022-10-14T13:46:44;15.50;99.90
25436;DHT22;13363;52.772;-3.890;2022-10-14T13:49:19;15.40;99.90
25436;DHT22;13363;52.772;-3.890;2022-10-14T13:52:15;15.30;99.90
25436;DHT22;13363;52.772;-3.890;2022-10-14T13:54:42;15.30;99.90
25436;DHT22;13363;52.772;-3.890;2022-10-14T13:59:38;15.40;99.90
25436;DHT22;13363;52.772;-3.890;2022-10-14T14:02:12;15.50;99.90
25436;DHT22;13363;52.772;-3.890;2022-10-14T14:04:40;15.60;99.90
25436;DHT22;13363;52.772;-3.890;2022-10-14T14:07:14;15.60;99.90
25436;DHT22;13363;52.772;-3.890;2022-10-14T14:09:51;15.70;99.90
25436;DHT22;13363;52.772;-3.890;2022-10-14T14:12:18;15.80;99.90
25436;DHT22;13363;52.772;-3.890;2022-10-14T14:14:46;15.90;99.90
25436;DHT22;13363;52.772;-3.890;2022-10-14T14:17:21;15.90;99.90
25436;DHT22;13363;52.772;-3.890;2022-10-14T14:19:48;16.00;99.90
25436;DHT22;13363;52.772;-3.890;2022-10-14T14:22:26;16.00;99.90
25436;DHT22;13363;52.772;-3.890;2022-10-14T14:25:10;16.10;99.90
25436;DHT22;13363;52.772;-3.890;2022-10-14T14:27:42;16.10;99.90
25436;DHT22;13363;52.772;-3.890;2022-10-14T14:30:22;16.00;99.90
25436;DHT22;13363;52.772;-3.890;2022-10-14T14:32:52;16.00;99.90
25436;DHT22;13363;52.772;-3.890;2022-10-14T14:35:18;16.10;99.90
25436;DHT22;13363;52.772;-3.890;2022-10-14T14:37:45;16.10;99.90
25436;DHT22;13363;52.772;-3.890;2022-10-14T14:40:25;16.10;99.90
25436;DHT22;13363;52.772;-3.890;2022-10-14T14:43:01;16.20;99.90
25436;DHT22;13363;52.772;-3.890;2022-10-14T14:45:41;16.20;99.90
25436;DHT22;13363;52.772;-3.890;2022-10-14T14:48:11;16.20;99.90
25436;DHT22;13363;52.772;-3.890;2022-10-14T14:50:40;16.00;99.90
25436;DHT22;13363;52.772;-3.890;2022-10-14T14:56:07;16.10;99.90
25436;DHT22;13363;52.772;-3.890;2022-10-14T14:58:45;16.10;99.90
25436;DHT22;13363;52.772;-3.890;2022-10-14T15:01:25;16.00;99.90
25436;DHT22;13363;52.772;-3.890;2022-10-14T15:04:04;16.00;99.90
25436;DHT22;13363;52.772;-3.890;2022-10-14T15:06:32;15.90;99.90
25436;DHT22;13363;52.772;-3.890;2022-10-14T15:09:11;15.90;99.90
25436;DHT22;13363;52.772;-3.890;2022-10-14T15:11:54;15.80;99.90
25436;DHT22;13363;52.772;-3.890;2022-10-14T15:14:40;15.90;99.90
25436;DHT22;13363;52.772;-3.890;2022-10-14T15:17:30;15.80;99.90
25436;DHT22;13363;52.772;-3.890;2022-10-14T15:19:58;15.90;99.90
25436;DHT22;13363;52.772;-3.890;2022-10-14T15:22:31;15.90;99.90
25436;DHT22;13363;52.772;-3.890;2022-10-14T15:30:31;15.90;99.90
25436;DHT22;13363;52.772;-3.890;2022-10-14T15:33:18;16.00;99.90
25436;DHT22;13363;52.772;-3.890;2022-10-14T15:35:57;15.80;99.90
25436;DHT22;13363;52.772;-3.890;2022-10-14T15:38:24;15.70;99.90
25436;DHT22;13363;52.772;-3.890;2022-10-14T15:40:50;15.70;99.90
25436;DHT22;13363;52.772;-3.890;2022-10-14T15:43:18;15.60;99.90
25436;DHT22;13363;52.772;-3.890;2022-10-14T15:45:48;15.60;99.90
25436;DHT22;13363;52.772;-3.890;2022-10-14T15:48:32;15.50;99.90
25436;DHT22;13363;52.772;-3.890;2022-10-14T15:50:59;15.40;99.90
25436;DHT22;13363;52.772;-3.890;2022-10-14T15:53:24;15.30;99.90
25436;DHT22;13363;52.772;-3.890;2022-10-14T15:55:53;15.40;99.90
25436;DHT22;13363;52.772;-3.890;2022-10-14T15:58:19;15.30;99.90
25436;DHT22;13363;52.772;-3.890;2022-10-14T16:00:45;15.30;99.90
25436;DHT22;13363;52.772;-3.890;2022-10-14T16:03:12;15.30;99.90
25436;DHT22;13363;52.772;-3.890;2022-10-14T16:05:40;15.20;99.90
25436;DHT22;13363;52.772;-3.890;2022-10-14T16:08:12;15.20;99.90
25436;DHT22;13363;52.772;-3.890;2022-10-14T16:10:38;15.20;99.90
25436;DHT22;13363;52.772;-3.890;2022-10-14T16:13:04;15.10;99.90
25436;DHT22;13363;52.772;-3.890;2022-10-14T16:18:08;15.00;99.90
25436;DHT22;13363;52.772;-3.890;2022-10-14T16:20:34;14.90;99.90
25436;DHT22;13363;52.772;-3.890;2022-10-14T16:23:00;14.90;99.90
25436;DHT22;13363;52.772;-3.890;2022-10-14T16:25:35;14.80;99.90
25436;DHT22;13363;52.772;-3.890;2022-10-14T16:28:07;14.80;99.90
25436;DHT22;13363;52.772;-3.890;2022-10-14T16:30:34;14.80;99.90
25436;DHT22;13363;52.772;-3.890;2022-10-14T16:33:02;14.80;99.90
25436;DHT22;13363;52.772;-3.890;2022-10-14T16:35:29;14.80;99.90
25436;DHT22;13363;52.772;-3.890;2022-10-14T16:37:55;14.70;99.90
25436;DHT22;13363;52.772;-3.890;2022-10-14T16:40:21;14.70;99.90
25436;DHT22;13363;52.772;-3.890;2022-10-14T16:42:47;14.60;99.90
25436;DHT22;13363;52.772;-3.890;2022-10-14T16:45:13;14.60;99.90
25436;DHT22;13363;52.772;-3.890;2022-10-14T16:47:39;14.50;99.90
25436;DHT22;13363;52.772;-3.890;2022-10-14T16:50:06;14.50;99.90
25436;DHT22;13363;52.772;-3.890;2022-10-14T16:52:33;14.40;99.90
25436;DHT22;13363;52.772;-3.890;2022-10-14T16:55:20;14.40;99.90
25436;DHT22;13363;52.772;-3.890;2022-10-14T16:57:47;14.30;99.90
25436;DHT22;13363;52.772;-3.890;2022-10-14T17:00:14;14.30;99.90
25436;DHT22;13363;52.772;-3.890;2022-10-14T17:02:40;14.30;99.90
25436;DHT22;13363;52.772;-3.890;2022-10-14T17:05:07;14.20;99.90
25436;DHT22;13363;52.772;-3.890;2022-10-14T17:07:33;14.20;99.90
25436;DHT22;13363;52.772;-3.890;2022-10-14T17:09:59;14.20;99.90
25436;DHT22;13363;52.772;-3.890;2022-10-14T17:12:25;14.20;99.90
25436;DHT22;13363;52.772;-3.890;2022-10-14T17:14:51;14.20;99.90
25436;DHT22;13363;52.772;-3.890;2022-10-14T17:17:17;14.10;99.90
25436;DHT22;13363;52.772;-3.890;2022-10-14T17:19:44;14.10;99.90
25436;DHT22;13363;52.772;-3.890;2022-10-14T17:22:10;14.00;99.90
25436;DHT22;13363;52.772;-3.890;2022-10-14T17:24:36;14.00;99.90
25436;DHT22;13363;52.772;-3.890;2022-10-14T17:27:02;13.90;99.90
25436;DHT22;13363;52.772;-3.890;2022-10-14T17:29:31;13.80;99.90
25436;DHT22;13363;52.772;-3.890;2022-10-14T17:31:57;13.70;99.90
25436;DHT22;13363;52.772;-3.890;2022-10-14T17:34:23;13.70;99.90
25436;DHT22;13363;52.772;-3.890;2022-10-14T17:36:49;13.60;99.90
25436;DHT22;13363;52.772;-3.890;2022-10-14T17:39:15;13.50;99.90
25436;DHT22;13363;52.772;-3.890;2022-10-14T17:41:44;13.40;99.90
25436;DHT22;13363;52.772;-3.890;2022-10-14T17:44:10;13.40;99.90
25436;DHT22;13363;52.772;-3.890;2022-10-14T17:46:37;13.30;99.90
25436;DHT22;13363;52.772;-3.890;2022-10-14T17:49:05;13.30;99.90
25436;DHT22;13363;52.772;-3.890;2022-10-14T17:51:34;13.20;99.90
25436;DHT22;13363;52.772;-3.890;2022-10-14T17:54:03;13.20;99.90
25436;DHT22;13363;52.772;-3.890;2022-10-14T17:56:31;13.20;99.90
25436;DHT22;13363;52.772;-3.890;2022-10-14T17:59:02;13.30;99.90
25436;DHT22;13363;52.772;-3.890;2022-10-14T18:01:29;13.30;99.90
25436;DHT22;13363;52.772;-3.890;2022-10-14T18:03:56;13.30;99.90
25436;DHT22;13363;52.772;-3.890;2022-10-14T18:06:33;13.30;99.90
25436;DHT22;13363;52.772;-3.890;2022-10-14T18:09:02;13.30;99.90
25436;DHT22;13363;52.772;-3.890;2022-10-14T18:11:30;13.30;99.90